Castle Airport
KMER : now visible

Airfield :











YOU CAN JOIN US ON...

 
LOGIN :

Register | Disclaimer

   EN    FR    IT 

 









Legend :    VFR   Marginal VFR   IFR   Intensive IFR   Very Intensive IFR
Visi :
Ceiling :
>= 8 km
>= 3000ft
5 to 8 km
1000 to 3000 ft
1500m to 5 km
500 to 1000 ft
800 to 1500m
200 to 500 ft
< 800m
< 200 ft
Symbols :   Thunderstorms  Fog  Heavy snow  Heavy precipitations  Wind > 20 kt






- Airport Elevation : 191 ft


KMER - Castle

CURRENT METAR :
  • 041415Z AUTO 00000KT 1/4SM OVC002 10/10 A3006 RMK AO1

EXPIRED METARs :
  • 041355Z AUTO 00000KT 3SM OVC001 10/10 A3005 RMK AO1
  • 041335Z AUTO 00000KT 1 1/4SM OVC001 11/11 A3003 RMK AO1
  • 041315Z AUTO 35003KT 2SM OVC002 11/11 A3003 RMK AO1
  • 041255Z AUTO 32005KT 9SM SCT004 OVC034 11/11 A3003 RMK AO1
  • 041235Z AUTO 29005KT 10SM OVC030 11/11 A3002 RMK AO1
  • 041215Z AUTO 27005KT 10SM OVC026 11/11 A3002 RMK AO1
  • 041155Z AUTO 24007KT 10SM OVC026 11/11 A3002 RMK AO1
  • 041135Z AUTO 24006KT 3SM FEW017 BKN024 OVC029 11/11 A3002 RMK AO1

TAF KMER
Valid from the 04 at 12:00 until the 05 at 12:00 UTC


041120Z 0412/0512 VRB06KT 1SM BR OVC015
TEMPO 0412/0416 1/4SM FG OVC005
FM041800 VRB05KT 5SM BR OVC050
FM050900 VRB02KT 1/4SM FG OVC005
KZOA FIR / North America



MET'MAP, your aeronautical weather chart ! - Copyright ORBIFLY December 2007 - Disclaimer

ORBIFLY MET'MAP TEAM :

Programming & Development : Alexandra Zaïnal
Original concept : Baudouin d'Aumeries
Technical & hardware support : Manuel Goepfert
Assistance : Marc-Olivier Méhu




SOURCES & CREDITS :

   NOAA       Earth
Advisory